createdAt,value
2022-09-13T00:01:12.587Z,2.05
2022-09-13T00:03:41.069Z,1.70
2022-09-13T00:06:12.001Z,1.60
2022-09-13T00:08:40.370Z,1.50
2022-09-13T00:11:09.295Z,1.63
2022-09-13T00:13:37.581Z,1.40
2022-09-13T00:16:06.021Z,1.55
2022-09-13T00:18:35.821Z,1.58
2022-09-13T00:21:09.615Z,1.40
2022-09-13T00:23:38.327Z,1.38
2022-09-13T00:26:08.995Z,1.30
2022-09-13T00:28:38.253Z,1.60
2022-09-13T00:31:10.137Z,1.30
2022-09-13T00:33:40.084Z,1.40
2022-09-13T00:36:10.555Z,1.30
2022-09-13T00:38:40.139Z,1.50
2022-09-13T00:41:12.870Z,1.50
2022-09-13T00:43:47.603Z,1.42
2022-09-13T00:46:21.763Z,1.50
2022-09-13T00:48:56.406Z,1.58
2022-09-13T00:51:25.228Z,1.50
2022-09-13T00:53:55.729Z,1.73
2022-09-13T00:56:28.100Z,1.45
2022-09-13T00:59:01.968Z,1.60
2022-09-13T01:01:38.714Z,1.40
2022-09-13T01:04:12.577Z,1.70
2022-09-13T01:06:43.652Z,1.30
2022-09-13T01:09:13.389Z,1.58
2022-09-13T01:11:50.078Z,1.50
2022-09-13T01:14:20.766Z,1.55
2022-09-13T01:16:49.508Z,1.80
2022-09-13T01:19:19.334Z,1.80
2022-09-13T01:22:38.099Z,1.70
2022-09-13T01:25:41.302Z,1.50
2022-09-13T01:28:38.812Z,1.70
2022-09-13T01:31:16.938Z,1.65
2022-09-13T01:33:59.332Z,1.60
2022-09-13T01:36:54.572Z,1.35
2022-09-13T01:39:35.330Z,1.50
2022-09-13T01:42:17.476Z,1.33
2022-09-13T01:45:02.271Z,1.20
2022-09-13T01:47:34.964Z,1.13
2022-09-13T01:50:19.852Z,1.10
2022-09-13T01:52:54.841Z,1.10
2022-09-13T01:55:33.849Z,1.20
2022-09-13T01:58:17.286Z,1.20
2022-09-13T02:00:53.275Z,1.02
2022-09-13T02:03:29.497Z,1.20
2022-09-13T02:06:02.613Z,1.20
2022-09-13T02:08:38.842Z,1.20
2022-09-13T02:11:10.693Z,1.20
2022-09-13T02:13:44.253Z,1.30
2022-09-13T02:16:18.193Z,1.30
2022-09-13T02:18:53.298Z,1.17
2022-09-13T02:21:28.249Z,1.10
2022-09-13T02:24:02.371Z,1.30
2022-09-13T02:26:32.622Z,1.20
2022-09-13T02:29:06.709Z,1.10
2022-09-13T02:31:40.700Z,1.20
2022-09-13T02:34:15.260Z,1.10
2022-09-13T02:36:46.552Z,1.30
2022-09-13T02:39:17.464Z,1.23
2022-09-13T02:41:53.972Z,1.23
2022-09-13T02:44:28.682Z,1.20
2022-09-13T02:47:07.932Z,1.20
2022-09-13T02:49:51.440Z,1.10
2022-09-13T02:52:31.061Z,1.25
2022-09-13T02:55:10.224Z,1.30
2022-09-13T02:57:45.842Z,1.50
2022-09-13T03:00:14.392Z,1.35
2022-09-13T03:02:46.339Z,1.40
2022-09-13T03:05:16.439Z,1.20
2022-09-13T03:07:45.003Z,1.20
2022-09-13T03:10:16.257Z,1.40
2022-09-13T03:13:10.101Z,1.60
2022-09-13T03:15:51.369Z,1.20
2022-09-13T03:18:36.556Z,1.25
2022-09-13T03:21:18.513Z,1.55
2022-09-13T03:23:57.064Z,1.40
2022-09-13T03:26:45.641Z,1.30
2022-09-13T03:29:27.597Z,1.50
2022-09-13T03:32:06.096Z,1.50
2022-09-13T03:34:43.751Z,1.30
2022-09-13T03:37:23.886Z,1.35
2022-09-13T03:39:58.030Z,1.35
2022-09-13T03:42:34.706Z,1.20
2022-09-13T03:45:05.060Z,1.40
2022-09-13T03:47:37.614Z,1.42
2022-09-13T03:50:09.528Z,1.83
2022-09-13T03:52:42.247Z,1.42
2022-09-13T03:55:14.361Z,1.50
2022-09-13T03:57:42.750Z,1.40
2022-09-13T04:00:14.871Z,1.48
2022-09-13T04:02:43.300Z,1.40
2022-09-13T04:05:11.785Z,1.13
2022-09-13T04:07:41.722Z,1.40
2022-09-13T04:10:13.691Z,1.30
2022-09-13T04:12:42.730Z,1.50
2022-09-13T04:15:11.202Z,1.42
2022-09-13T04:17:39.587Z,1.08
2022-09-13T04:20:08.709Z,1.13
2022-09-13T04:22:37.066Z,0.90
2022-09-13T04:25:07.896Z,1.20
2022-09-13T04:27:36.612Z,1.10
2022-09-13T04:30:06.367Z,1.10
2022-09-13T04:32:35.561Z,1.20
2022-09-13T04:35:04.135Z,1.10
2022-09-13T04:37:32.479Z,0.90
2022-09-13T04:40:00.837Z,1.20
2022-09-13T04:42:30.627Z,1.10
2022-09-13T04:44:59.447Z,1.42
2022-09-13T04:47:28.043Z,1.25
2022-09-13T04:49:56.638Z,1.10
2022-09-13T04:52:25.151Z,1.20
2022-09-13T04:54:53.867Z,1.10
2022-09-13T04:57:24.129Z,1.45
2022-09-13T04:59:54.006Z,1.25
2022-09-13T05:02:22.452Z,1.20
2022-09-13T05:04:50.944Z,1.20
2022-09-13T05:07:19.317Z,1.40
2022-09-13T05:09:47.774Z,1.23
2022-09-13T05:12:16.148Z,1.20
2022-09-13T05:14:44.546Z,1.13
2022-09-13T05:17:14.427Z,1.27
2022-09-13T05:19:44.009Z,1.63
2022-09-13T05:22:12.424Z,1.20
2022-09-13T05:24:40.713Z,1.35
2022-09-13T05:27:09.339Z,1.38
2022-09-13T05:29:37.870Z,1.40
2022-09-13T05:32:06.303Z,1.50
2022-09-13T05:34:36.313Z,1.58
2022-09-13T05:37:04.729Z,1.50
2022-09-13T05:39:48.811Z,1.38
2022-09-13T05:42:21.780Z,1.35
2022-09-13T05:44:50.126Z,1.50
2022-09-13T05:47:18.466Z,1.40
2022-09-13T05:50:08.852Z,1.30
2022-09-13T05:52:36.638Z,1.40
2022-09-13T05:55:05.505Z,1.40
2022-09-13T05:57:33.797Z,1.50
2022-09-13T06:00:02.349Z,1.40
2022-09-13T06:02:41.391Z,1.30
2022-09-13T06:05:11.924Z,1.40
2022-09-13T06:07:42.798Z,1.40
2022-09-13T06:10:12.888Z,1.55
2022-09-13T06:12:41.553Z,1.23
2022-09-13T06:15:11.381Z,1.20
2022-09-13T06:17:39.744Z,1.30
2022-09-13T06:20:09.460Z,1.30
2022-09-13T06:22:39.219Z,1.40
2022-09-13T06:25:09.475Z,1.40
2022-09-13T06:27:38.029Z,1.40
2022-09-13T06:30:08.809Z,1.40
2022-09-13T06:32:37.325Z,1.20
2022-09-13T06:35:06.826Z,1.30
2022-09-13T06:37:35.328Z,1.50
2022-09-13T06:40:06.055Z,1.50
2022-09-13T06:42:35.419Z,1.73
2022-09-13T06:45:04.883Z,1.27
2022-09-13T06:47:33.936Z,1.40
2022-09-13T06:50:02.400Z,1.50
2022-09-13T06:52:32.956Z,1.20
2022-09-13T06:55:01.789Z,1.27
2022-09-13T06:57:32.474Z,1.33
2022-09-13T07:00:00.857Z,1.15
2022-09-13T07:02:29.276Z,1.25
2022-09-13T07:04:57.647Z,1.33
2022-09-13T07:07:26.044Z,1.13
2022-09-13T07:09:54.573Z,1.30
2022-09-13T07:12:22.963Z,1.30
2022-09-13T07:14:53.575Z,1.40
2022-09-13T07:17:21.941Z,1.40
2022-09-13T07:19:50.385Z,1.40
2022-09-13T07:22:18.828Z,1.30
2022-09-13T07:24:47.228Z,1.50
2022-09-13T07:27:16.712Z,1.67
2022-09-13T07:29:45.174Z,1.50
2022-09-13T07:32:14.914Z,1.30
2022-09-13T07:34:43.351Z,1.52
2022-09-13T07:37:13.559Z,1.75
2022-09-13T07:39:41.980Z,1.58
2022-09-13T07:42:10.437Z,1.60
2022-09-13T07:44:39.959Z,1.40
2022-09-13T07:47:08.558Z,1.42
2022-09-13T07:49:38.318Z,1.73
2022-09-13T07:52:06.653Z,1.38
2022-09-13T07:54:36.557Z,1.55
2022-09-13T07:57:05.230Z,1.40
2022-09-13T07:59:33.673Z,1.55
2022-09-13T08:02:02.177Z,5.57
2022-09-13T08:04:34.457Z,2.40
2022-09-13T08:07:05.951Z,1.50
2022-09-13T08:09:34.303Z,1.35
2022-09-13T08:12:02.912Z,1.40
2022-09-13T08:14:31.332Z,1.42
2022-09-13T08:16:59.694Z,1.33
2022-09-13T08:19:28.510Z,1.30
2022-09-13T08:21:56.977Z,1.98
2022-09-13T08:24:28.329Z,1.95
2022-09-13T08:26:56.912Z,1.50
2022-09-13T08:29:25.375Z,1.35
2022-09-13T08:31:53.769Z,1.27
2022-09-13T08:34:22.775Z,1.40
2022-09-13T08:36:51.128Z,1.30
2022-09-13T08:39:19.613Z,1.60
2022-09-13T08:42:02.220Z,1.60
2022-09-13T08:44:33.143Z,1.50
2022-09-13T08:47:15.707Z,1.60
2022-09-13T08:49:47.765Z,1.50
2022-09-13T08:52:28.130Z,1.30
2022-09-13T08:54:58.413Z,1.20
2022-09-13T08:57:34.936Z,1.48
2022-09-13T09:00:24.544Z,1.52
2022-09-13T09:03:03.646Z,1.30
2022-09-13T09:05:37.435Z,1.30
2022-09-13T09:08:12.558Z,1.50
2022-09-13T09:10:44.659Z,1.30
2022-09-13T09:13:24.524Z,1.50
2022-09-13T09:15:56.264Z,1.50
2022-09-13T09:18:30.102Z,1.73
2022-09-13T09:21:00.712Z,1.33
2022-09-13T09:23:36.387Z,1.50
2022-09-13T09:26:16.854Z,1.65
2022-09-13T09:28:48.627Z,1.65
2022-09-13T09:31:25.898Z,1.85
2022-09-13T09:34:09.495Z,1.80
2022-09-13T09:36:43.290Z,1.90
2022-09-13T09:39:16.407Z,1.77
2022-09-13T09:41:45.816Z,1.80
2022-09-13T09:44:19.743Z,1.98
2022-09-13T09:46:51.719Z,2.10
2022-09-13T09:49:43.011Z,2.10
2022-09-13T09:52:14.593Z,2.40
2022-09-13T09:54:42.966Z,2.30
2022-09-13T09:57:11.523Z,2.15
2022-09-13T09:59:41.344Z,1.75
2022-09-13T10:02:17.312Z,2.15
2022-09-13T10:04:56.110Z,1.77
2022-09-13T10:07:32.566Z,2.17
2022-09-13T10:10:04.862Z,2.05
2022-09-13T10:12:35.797Z,1.90
2022-09-13T10:15:15.408Z,1.70
2022-09-13T10:17:44.696Z,1.60
2022-09-13T10:20:23.347Z,1.95
2022-09-13T10:23:18.027Z,1.70
2022-09-13T10:25:57.925Z,1.60
2022-09-13T10:28:27.862Z,1.60
2022-09-13T10:31:00.908Z,1.50
2022-09-13T10:33:32.010Z,1.90
2022-09-13T10:36:03.528Z,1.75
2022-09-13T10:38:35.189Z,1.60
2022-09-13T10:41:07.042Z,1.50
2022-09-13T10:43:36.538Z,1.60
2022-09-13T10:46:11.185Z,1.63
2022-09-13T10:48:48.361Z,1.65
2022-09-13T10:51:29.804Z,1.52
2022-09-13T10:54:20.485Z,1.40
2022-09-13T10:56:50.700Z,1.50
2022-09-13T10:59:24.470Z,1.70
2022-09-13T11:02:15.820Z,1.50
2022-09-13T11:04:57.805Z,1.38
2022-09-13T11:07:51.946Z,1.40
2022-09-13T11:10:29.913Z,1.20
2022-09-13T11:13:07.341Z,1.10
2022-09-13T11:15:54.916Z,1.10
2022-09-13T11:18:57.624Z,1.00
2022-09-13T11:21:40.568Z,0.90
2022-09-13T11:24:22.365Z,1.50
2022-09-13T11:27:00.575Z,1.50
2022-09-13T11:29:49.630Z,1.90
2022-09-13T11:32:29.314Z,1.73
2022-09-13T11:35:19.310Z,1.58
2022-09-13T11:37:56.338Z,1.60
2022-09-13T11:40:39.520Z,1.88
2022-09-13T11:43:37.245Z,2.10
2022-09-13T11:46:15.940Z,2.10
2022-09-13T11:48:59.545Z,2.05
2022-09-13T11:51:36.611Z,2.35
2022-09-13T11:54:18.823Z,2.13
2022-09-13T11:56:51.037Z,1.80
2022-09-13T11:59:36.480Z,1.70
2022-09-13T12:02:15.699Z,1.85
2022-09-13T12:05:18.058Z,1.90
2022-09-13T12:07:47.126Z,1.30
2022-09-13T12:10:19.275Z,1.40
2022-09-13T12:12:52.095Z,1.30
2022-09-13T12:15:27.363Z,1.17
2022-09-13T12:17:59.908Z,1.20
2022-09-13T12:20:35.476Z,1.17
2022-09-13T12:23:12.570Z,1.23
2022-09-13T12:25:49.082Z,1.20
2022-09-13T12:28:23.325Z,1.10
2022-09-13T12:30:56.746Z,1.10
2022-09-13T12:33:25.453Z,0.90
2022-09-13T12:36:13.796Z,1.20
2022-09-13T12:39:21.743Z,1.00
2022-09-13T12:42:07.669Z,1.10
2022-09-13T12:44:48.967Z,1.10
2022-09-13T12:47:42.314Z,1.02
2022-09-13T12:50:41.829Z,0.93
2022-09-13T12:53:26.957Z,1.00
2022-09-13T12:56:11.847Z,1.20
2022-09-13T12:59:14.408Z,1.10
2022-09-13T13:01:46.918Z,1.17
2022-09-13T13:04:18.054Z,1.10
2022-09-13T13:06:52.140Z,1.00
2022-09-13T13:09:29.026Z,0.90
2022-09-13T13:11:59.633Z,1.00
2022-09-13T13:14:48.479Z,1.15
2022-09-13T13:17:37.926Z,0.85
2022-09-13T13:20:47.063Z,0.90
2022-09-13T13:23:26.841Z,0.82
2022-09-13T13:26:01.340Z,1.00
2022-09-13T13:29:04.413Z,0.90
2022-09-13T13:31:38.243Z,0.98
2022-09-13T13:34:35.006Z,0.83
2022-09-13T13:37:05.445Z,1.05
2022-09-13T13:39:42.359Z,1.00
2022-09-13T13:42:31.472Z,1.00
2022-09-13T13:45:17.685Z,1.17
2022-09-13T13:48:15.169Z,0.90
2022-09-13T13:51:19.582Z,1.08
2022-09-13T13:53:52.320Z,1.00
2022-09-13T13:56:48.848Z,0.90
2022-09-13T13:59:28.040Z,1.10
2022-09-13T14:02:01.671Z,1.05
2022-09-13T14:04:59.238Z,1.20
2022-09-13T14:07:56.921Z,1.30
2022-09-13T14:10:30.853Z,1.50
2022-09-13T14:13:18.095Z,1.50
2022-09-13T14:15:56.256Z,1.33
2022-09-13T14:18:42.720Z,1.48
2022-09-13T14:21:21.524Z,1.33
2022-09-13T14:23:50.527Z,1.33
2022-09-13T14:26:18.923Z,1.40
2022-09-13T14:28:47.423Z,1.20
2022-09-13T14:31:21.111Z,1.20
2022-09-13T14:33:50.982Z,1.00
2022-09-13T14:36:22.250Z,1.00
2022-09-13T14:38:55.528Z,1.33
2022-09-13T14:41:32.030Z,1.08
2022-09-13T14:44:22.603Z,1.40
2022-09-13T14:46:58.642Z,1.30
2022-09-13T14:49:34.116Z,1.30
2022-09-13T14:52:06.841Z,1.30
2022-09-13T14:54:40.184Z,1.58
2022-09-13T14:57:10.927Z,1.25
2022-09-13T14:59:45.610Z,1.50
2022-09-13T15:02:21.588Z,1.85
2022-09-13T15:04:54.077Z,1.90
2022-09-13T15:07:29.071Z,2.00
2022-09-13T15:10:00.668Z,2.10
2022-09-13T15:12:29.912Z,2.00
2022-09-13T15:15:23.111Z,2.38
2022-09-13T15:17:56.690Z,2.40
2022-09-13T15:20:28.205Z,2.80
2022-09-13T15:22:57.085Z,2.75
2022-09-13T15:25:27.894Z,2.92
2022-09-13T15:27:57.905Z,3.15
2022-09-13T15:30:28.887Z,2.97
2022-09-13T15:33:16.227Z,3.20
2022-09-13T15:35:47.882Z,2.72
2022-09-13T15:38:20.683Z,2.30
2022-09-13T15:41:00.347Z,2.90
2022-09-13T15:43:29.764Z,3.30
2022-09-13T15:46:01.800Z,3.10
2022-09-13T15:48:32.623Z,2.63
2022-09-13T15:51:11.874Z,2.47
2022-09-13T15:53:42.926Z,2.90
2022-09-13T15:56:31.162Z,2.53
2022-09-13T15:58:59.649Z,2.65
2022-09-13T16:01:28.482Z,2.47
2022-09-13T16:03:57.285Z,2.55
2022-09-13T16:06:27.192Z,2.35
2022-09-13T16:08:55.724Z,2.40
2022-09-13T16:11:26.105Z,2.47
2022-09-13T16:13:54.550Z,2.80
2022-09-13T16:16:23.464Z,2.58
2022-09-13T16:18:51.938Z,2.95
2022-09-13T16:21:20.371Z,3.05
2022-09-13T16:23:50.054Z,3.13
2022-09-13T16:26:18.506Z,3.03
2022-09-13T16:28:46.841Z,5.00
2022-09-13T16:31:16.640Z,3.58
2022-09-13T16:33:45.375Z,3.20
2022-09-13T16:36:13.906Z,3.00
2022-09-13T16:38:42.442Z,3.30
2022-09-13T16:41:12.202Z,2.53
2022-09-13T16:43:41.077Z,2.63
2022-09-13T16:46:10.968Z,2.30
2022-09-13T16:48:39.453Z,2.47
2022-09-13T16:51:11.189Z,2.15
2022-09-13T16:53:42.909Z,1.90
2022-09-13T16:56:16.221Z,2.10
2022-09-13T16:58:46.678Z,2.20
2022-09-13T17:01:17.162Z,2.03
2022-09-13T17:03:45.996Z,1.98
2022-09-13T17:06:16.972Z,2.00
2022-09-13T17:08:49.291Z,2.10
2022-09-13T17:11:23.116Z,1.92
2022-09-13T17:13:51.905Z,1.90
2022-09-13T17:16:24.798Z,1.60
2022-09-13T17:18:53.694Z,1.80
2022-09-13T17:21:23.335Z,2.00
2022-09-13T17:23:52.110Z,1.63
2022-09-13T17:26:21.981Z,1.80
2022-09-13T17:28:52.562Z,2.25
2022-09-13T17:31:21.604Z,1.65
2022-09-13T17:33:50.296Z,1.77
2022-09-13T17:36:18.773Z,1.85
2022-09-13T17:38:47.307Z,1.60
2022-09-13T17:41:17.607Z,1.80
2022-09-13T17:43:47.863Z,2.10
2022-09-13T17:46:17.981Z,2.50
2022-09-13T17:48:46.448Z,2.38
2022-09-13T17:51:17.203Z,1.90
2022-09-13T17:53:47.618Z,2.15
2022-09-13T17:56:18.913Z,1.95
2022-09-13T17:58:49.140Z,2.10
2022-09-13T18:01:18.007Z,1.95
2022-09-13T18:03:46.419Z,2.28
2022-09-13T18:06:15.064Z,2.60
2022-09-13T18:08:43.664Z,2.80
2022-09-13T18:11:14.370Z,2.58
2022-09-13T18:13:44.141Z,2.42
2022-09-13T18:16:20.013Z,2.40
2022-09-13T18:18:50.619Z,2.45
2022-09-13T18:21:20.446Z,2.47
2022-09-13T18:23:50.633Z,2.60
2022-09-13T18:26:21.325Z,2.53
2022-09-13T18:28:55.872Z,2.47
2022-09-13T18:31:26.470Z,2.30
2022-09-13T18:33:56.965Z,2.35
2022-09-13T18:36:26.586Z,2.10
2022-09-13T18:38:55.980Z,2.70
2022-09-13T18:41:26.181Z,2.35
2022-09-13T18:43:56.400Z,2.40
2022-09-13T18:46:30.235Z,2.70
2022-09-13T18:48:59.453Z,2.67
2022-09-13T18:51:31.134Z,2.60
2022-09-13T18:54:00.366Z,2.92
2022-09-13T18:56:29.777Z,2.90
2022-09-13T18:59:00.656Z,2.83
2022-09-13T19:01:32.654Z,2.45
2022-09-13T19:04:03.541Z,2.90
2022-09-13T19:06:34.740Z,2.70
2022-09-13T19:09:04.778Z,2.53
2022-09-13T19:11:46.342Z,2.67
2022-09-13T19:14:40.525Z,2.88
2022-09-13T19:17:19.890Z,2.95
2022-09-13T19:19:48.738Z,2.90
2022-09-13T19:22:17.635Z,2.72
2022-09-13T19:24:46.331Z,2.75
2022-09-13T19:27:14.791Z,3.03
2022-09-13T19:29:43.306Z,2.80
2022-09-13T19:32:11.949Z,2.72
2022-09-13T19:34:42.088Z,2.78
2022-09-13T19:37:10.639Z,2.40
2022-09-13T19:39:39.522Z,2.80
2022-09-13T19:42:08.193Z,2.83
2022-09-13T19:44:37.558Z,2.92
2022-09-13T19:47:44.802Z,2.53
2022-09-13T19:49:58.906Z,2.97
2022-09-13T19:52:27.587Z,2.80
2022-09-13T19:54:58.557Z,3.25
2022-09-13T19:57:27.048Z,3.08
2022-09-13T19:59:55.680Z,3.25
2022-09-13T20:02:24.122Z,3.70
2022-09-13T20:04:52.770Z,3.25
2022-09-13T20:07:22.616Z,3.10
2022-09-13T20:09:51.197Z,3.25
2022-09-13T20:12:20.172Z,3.30
2022-09-13T20:14:48.469Z,2.97
2022-09-13T20:17:16.902Z,3.05
2022-09-13T20:19:49.915Z,3.20
2022-09-13T20:22:18.593Z,3.28
2022-09-13T20:24:48.594Z,3.00
2022-09-13T20:27:17.060Z,3.28
2022-09-13T20:29:45.455Z,3.20
2022-09-13T20:32:13.900Z,3.45
2022-09-13T20:34:42.344Z,3.05
2022-09-13T20:37:10.729Z,2.92
2022-09-13T20:39:39.092Z,3.33
2022-09-13T20:42:08.974Z,3.10
2022-09-13T20:44:37.689Z,3.28
2022-09-13T20:47:06.313Z,3.17
2022-09-13T20:49:34.661Z,3.28
2022-09-13T20:52:03.624Z,3.60
2022-09-13T20:54:32.106Z,3.05
2022-09-13T20:57:00.915Z,3.10
2022-09-13T20:59:30.733Z,3.83
2022-09-13T21:01:59.305Z,3.55
2022-09-13T21:04:27.912Z,3.67
2022-09-13T21:07:14.943Z,3.60
2022-09-13T21:09:43.824Z,3.55
2022-09-13T21:12:12.213Z,3.60
2022-09-13T21:14:41.984Z,3.85
2022-09-13T21:17:10.379Z,3.95
2022-09-13T21:19:38.889Z,4.07
2022-09-13T21:22:07.987Z,4.03
2022-09-13T21:24:36.454Z,4.50
2022-09-13T21:27:05.210Z,4.40
2022-09-13T21:29:34.074Z,4.30
2022-09-13T21:32:04.061Z,3.83
2022-09-13T21:34:32.403Z,3.85
2022-09-13T21:37:00.726Z,3.85
2022-09-13T21:39:29.867Z,4.20
2022-09-13T21:41:58.219Z,3.67
2022-09-13T21:44:28.014Z,3.97
2022-09-13T21:46:56.377Z,3.92
2022-09-13T21:49:26.038Z,3.67
2022-09-13T21:51:54.923Z,4.57
2022-09-13T21:54:23.581Z,4.47
2022-09-13T21:56:54.737Z,3.88
2022-09-13T21:59:24.664Z,4.13
2022-09-13T22:01:54.414Z,4.50
2022-09-13T22:04:27.047Z,4.88
2022-09-13T22:06:57.062Z,5.47
2022-09-13T22:09:27.611Z,5.18
2022-09-13T22:11:56.511Z,6.28
2022-09-13T22:14:24.903Z,6.72
2022-09-13T22:16:53.968Z,6.07
2022-09-13T22:19:24.920Z,5.57
2022-09-13T22:21:58.801Z,5.45
2022-09-13T22:24:29.509Z,6.25
2022-09-13T22:26:59.088Z,5.82
2022-09-13T22:29:28.375Z,6.28
2022-09-13T22:31:57.024Z,6.10
2022-09-13T22:34:30.552Z,7.63
2022-09-13T22:37:00.416Z,7.82
2022-09-13T22:39:28.920Z,7.40
2022-09-13T22:41:57.250Z,6.45
2022-09-13T22:44:25.819Z,6.85
2022-09-13T22:46:54.615Z,8.00
2022-09-13T22:49:22.983Z,9.65
2022-09-13T22:51:51.354Z,10.35
2022-09-13T22:54:21.130Z,10.13
2022-09-13T22:56:49.637Z,10.30
2022-09-13T22:59:19.917Z,11.00
2022-09-13T23:01:49.146Z,9.52
2022-09-13T23:04:17.785Z,11.32
2022-09-13T23:06:46.199Z,10.60
2022-09-13T23:09:17.655Z,10.07
2022-09-13T23:11:47.834Z,10.85
2022-09-13T23:14:19.734Z,10.27
2022-09-13T23:16:50.037Z,10.18
2022-09-13T23:19:21.116Z,9.82
2022-09-13T23:21:50.034Z,10.65
2022-09-13T23:24:19.643Z,10.15
2022-09-13T23:26:49.380Z,10.40
2022-09-13T23:29:20.029Z,11.18
2022-09-13T23:31:48.781Z,10.68
2022-09-13T23:34:18.313Z,11.15
2022-09-13T23:36:47.658Z,11.68
2022-09-13T23:39:18.377Z,10.77
2022-09-13T23:41:49.462Z,12.05
2022-09-13T23:44:18.016Z,12.20
2022-09-13T23:46:46.686Z,11.15
2022-09-13T23:49:15.362Z,11.73
2022-09-13T23:51:44.111Z,12.48
2022-09-13T23:54:13.640Z,12.95
2022-09-13T23:56:42.609Z,13.15
2022-09-13T23:59:13.875Z,13.45
